sensor_id;sensor_type;location;lat;lon;timestamp;temperature;humidity
23377;DHT22;14353;46.070;13.222;2022-08-21T00:00:20;29.90;41.00
23377;DHT22;14353;46.070;13.222;2022-08-21T00:02:53;29.90;41.00
23377;DHT22;14353;46.070;13.222;2022-08-21T00:05:20;29.90;41.00
23377;DHT22;14353;46.070;13.222;2022-08-21T00:07:46;29.90;41.00
23377;DHT22;14353;46.070;13.222;2022-08-21T00:10:13;29.90;41.00
23377;DHT22;14353;46.070;13.222;2022-08-21T00:12:40;29.90;41.00
23377;DHT22;14353;46.070;13.222;2022-08-21T00:15:12;29.90;41.00
23377;DHT22;14353;46.070;13.222;2022-08-21T00:17:41;29.90;41.00
23377;DHT22;14353;46.070;13.222;2022-08-21T00:20:09;29.90;41.00
23377;DHT22;14353;46.070;13.222;2022-08-21T00:22:38;29.90;41.00
23377;DHT22;14353;46.070;13.222;2022-08-21T00:25:08;29.90;41.00
23377;DHT22;14353;46.070;13.222;2022-08-21T00:27:35;29.90;41.00
23377;DHT22;14353;46.070;13.222;2022-08-21T00:30:05;29.90;41.10
23377;DHT22;14353;46.070;13.222;2022-08-21T00:32:32;29.80;41.00
23377;DHT22;14353;46.070;13.222;2022-08-21T00:35:01;29.80;41.00
23377;DHT22;14353;46.070;13.222;2022-08-21T00:37:27;29.90;41.10
23377;DHT22;14353;46.070;13.222;2022-08-21T00:39:53;29.90;41.10
23377;DHT22;14353;46.070;13.222;2022-08-21T00:42:22;29.80;40.90
23377;DHT22;14353;46.070;13.222;2022-08-21T00:44:49;29.80;41.00
23377;DHT22;14353;46.070;13.222;2022-08-21T00:47:18;29.80;41.00
23377;DHT22;14353;46.070;13.222;2022-08-21T00:49:45;29.80;41.00
23377;DHT22;14353;46.070;13.222;2022-08-21T00:52:15;29.80;41.00
23377;DHT22;14353;46.070;13.222;2022-08-21T00:54:43;29.80;41.00
23377;DHT22;14353;46.070;13.222;2022-08-21T00:57:15;29.80;41.00
23377;DHT22;14353;46.070;13.222;2022-08-21T00:59:48;29.80;41.00
23377;DHT22;14353;46.070;13.222;2022-08-21T01:02:16;29.80;41.00
23377;DHT22;14353;46.070;13.222;2022-08-21T01:04:43;29.80;40.90
23377;DHT22;14353;46.070;13.222;2022-08-21T01:07:09;29.80;40.90
23377;DHT22;14353;46.070;13.222;2022-08-21T01:09:36;29.80;40.90
23377;DHT22;14353;46.070;13.222;2022-08-21T01:12:02;29.80;40.90
23377;DHT22;14353;46.070;13.222;2022-08-21T01:14:29;29.80;40.90
23377;DHT22;14353;46.070;13.222;2022-08-21T01:16:56;29.80;40.90
23377;DHT22;14353;46.070;13.222;2022-08-21T01:19:24;29.80;40.90
23377;DHT22;14353;46.070;13.222;2022-08-21T01:21:51;29.80;40.90
23377;DHT22;14353;46.070;13.222;2022-08-21T01:24:16;29.80;40.90
23377;DHT22;14353;46.070;13.222;2022-08-21T01:26:43;29.80;40.90
23377;DHT22;14353;46.070;13.222;2022-08-21T01:29:33;29.80;40.90
23377;DHT22;14353;46.070;13.222;2022-08-21T01:32:11;29.80;40.90
23377;DHT22;14353;46.070;13.222;2022-08-21T01:34:40;29.80;40.90
23377;DHT22;14353;46.070;13.222;2022-08-21T01:37:06;29.80;40.90
23377;DHT22;14353;46.070;13.222;2022-08-21T01:39:33;29.80;40.90
23377;DHT22;14353;46.070;13.222;2022-08-21T01:42:01;29.80;40.90
23377;DHT22;14353;46.070;13.222;2022-08-21T01:44:27;29.80;40.90
23377;DHT22;14353;46.070;13.222;2022-08-21T01:46:54;29.80;40.90
23377;DHT22;14353;46.070;13.222;2022-08-21T01:49:20;29.80;40.90
23377;DHT22;14353;46.070;13.222;2022-08-21T01:51:46;29.80;41.60
23377;DHT22;14353;46.070;13.222;2022-08-21T01:54:12;29.80;40.90
23377;DHT22;14353;46.070;13.222;2022-08-21T01:56:41;29.80;40.90
23377;DHT22;14353;46.070;13.222;2022-08-21T01:59:07;29.80;40.90
23377;DHT22;14353;46.070;13.222;2022-08-21T02:01:33;29.70;40.90
23377;DHT22;14353;46.070;13.222;2022-08-21T02:03:59;29.80;40.90
23377;DHT22;14353;46.070;13.222;2022-08-21T02:06:26;29.70;40.90
23377;DHT22;14353;46.070;13.222;2022-08-21T02:08:55;29.70;40.90
23377;DHT22;14353;46.070;13.222;2022-08-21T02:11:21;29.80;40.90
23377;DHT22;14353;46.070;13.222;2022-08-21T02:13:47;29.70;40.80
23377;DHT22;14353;46.070;13.222;2022-08-21T02:16:13;29.70;40.90
23377;DHT22;14353;46.070;13.222;2022-08-21T02:18:42;29.70;40.80
23377;DHT22;14353;46.070;13.222;2022-08-21T02:21:08;29.70;40.80
23377;DHT22;14353;46.070;13.222;2022-08-21T02:23:37;29.70;40.80
23377;DHT22;14353;46.070;13.222;2022-08-21T02:26:06;29.70;41.50
23377;DHT22;14353;46.070;13.222;2022-08-21T02:28:35;29.70;40.80
23377;DHT22;14353;46.070;13.222;2022-08-21T02:31:02;29.80;40.80
23377;DHT22;14353;46.070;13.222;2022-08-21T02:33:28;29.70;40.70
23377;DHT22;14353;46.070;13.222;2022-08-21T02:35:55;29.70;40.80
23377;DHT22;14353;46.070;13.222;2022-08-21T02:38:33;29.70;40.80
23377;DHT22;14353;46.070;13.222;2022-08-21T02:41:00;29.70;40.80
23377;DHT22;14353;46.070;13.222;2022-08-21T02:43:29;29.70;40.70
23377;DHT22;14353;46.070;13.222;2022-08-21T02:45:59;29.70;40.70
23377;DHT22;14353;46.070;13.222;2022-08-21T02:48:28;29.70;40.80
23377;DHT22;14353;46.070;13.222;2022-08-21T02:51:02;29.70;40.80
23377;DHT22;14353;46.070;13.222;2022-08-21T02:53:29;29.70;40.70
23377;DHT22;14353;46.070;13.222;2022-08-21T02:55:57;29.70;40.80
23377;DHT22;14353;46.070;13.222;2022-08-21T02:58:27;29.70;40.70
23377;DHT22;14353;46.070;13.222;2022-08-21T03:00:56;29.70;40.70
23377;DHT22;14353;46.070;13.222;2022-08-21T03:03:25;29.70;40.70
23377;DHT22;14353;46.070;13.222;2022-08-21T03:05:51;29.70;40.80
23377;DHT22;14353;46.070;13.222;2022-08-21T03:08:17;29.70;40.70
23377;DHT22;14353;46.070;13.222;2022-08-21T03:10:48;29.70;40.70
23377;DHT22;14353;46.070;13.222;2022-08-21T03:13:14;29.70;40.70
23377;DHT22;14353;46.070;13.222;2022-08-21T03:15:41;29.70;40.70
23377;DHT22;14353;46.070;13.222;2022-08-21T03:18:09;29.70;40.60
23377;DHT22;14353;46.070;13.222;2022-08-21T03:20:36;29.70;40.60
23377;DHT22;14353;46.070;13.222;2022-08-21T03:23:03;29.70;40.60
23377;DHT22;14353;46.070;13.222;2022-08-21T03:25:30;29.60;40.60
23377;DHT22;14353;46.070;13.222;2022-08-21T03:28:00;29.60;40.50
23377;DHT22;14353;46.070;13.222;2022-08-21T03:30:26;29.60;40.50
23377;DHT22;14353;46.070;13.222;2022-08-21T03:32:52;29.60;40.60
23377;DHT22;14353;46.070;13.222;2022-08-21T03:35:20;29.70;40.60
23377;DHT22;14353;46.070;13.222;2022-08-21T03:37:46;29.60;40.50
23377;DHT22;14353;46.070;13.222;2022-08-21T03:40:15;29.60;40.50
23377;DHT22;14353;46.070;13.222;2022-08-21T03:42:42;29.60;40.50
23377;DHT22;14353;46.070;13.222;2022-08-21T03:45:09;29.60;40.50
23377;DHT22;14353;46.070;13.222;2022-08-21T03:50:35;29.60;40.50
23377;DHT22;14353;46.070;13.222;2022-08-21T03:53:02;29.60;40.50
23377;DHT22;14353;46.070;13.222;2022-08-21T03:55:28;29.60;40.50
23377;DHT22;14353;46.070;13.222;2022-08-21T03:57:54;29.60;40.50
23377;DHT22;14353;46.070;13.222;2022-08-21T04:00:23;29.60;40.50
23377;DHT22;14353;46.070;13.222;2022-08-21T04:02:49;29.60;40.50
23377;DHT22;14353;46.070;13.222;2022-08-21T04:05:22;29.60;40.50
23377;DHT22;14353;46.070;13.222;2022-08-21T04:07:58;29.60;40.50
23377;DHT22;14353;46.070;13.222;2022-08-21T04:10:26;29.60;40.50
23377;DHT22;14353;46.070;13.222;2022-08-21T04:12:52;29.60;40.50
23377;DHT22;14353;46.070;13.222;2022-08-21T04:15:19;29.60;40.50
23377;DHT22;14353;46.070;13.222;2022-08-21T04:17:45;29.60;40.50
23377;DHT22;14353;46.070;13.222;2022-08-21T04:20:11;29.60;40.50
23377;DHT22;14353;46.070;13.222;2022-08-21T04:22:41;29.60;40.40
23377;DHT22;14353;46.070;13.222;2022-08-21T04:25:07;29.60;40.40
23377;DHT22;14353;46.070;13.222;2022-08-21T04:27:34;29.60;40.40
23377;DHT22;14353;46.070;13.222;2022-08-21T04:30:09;29.60;40.40
23377;DHT22;14353;46.070;13.222;2022-08-21T04:32:42;29.60;40.40
23377;DHT22;14353;46.070;13.222;2022-08-21T04:35:10;29.50;40.30
23377;DHT22;14353;46.070;13.222;2022-08-21T04:37:37;29.50;40.30
23377;DHT22;14353;46.070;13.222;2022-08-21T04:40:04;29.50;40.40
23377;DHT22;14353;46.070;13.222;2022-08-21T04:42:30;29.50;40.30
23377;DHT22;14353;46.070;13.222;2022-08-21T04:44:56;29.60;40.40
23377;DHT22;14353;46.070;13.222;2022-08-21T04:47:23;29.60;40.30
23377;DHT22;14353;46.070;13.222;2022-08-21T04:49:50;29.50;40.30
23377;DHT22;14353;46.070;13.222;2022-08-21T04:52:20;29.50;40.30
23377;DHT22;14353;46.070;13.222;2022-08-21T04:54:50;29.50;40.30
23377;DHT22;14353;46.070;13.222;2022-08-21T04:57:17;29.50;40.20
23377;DHT22;14353;46.070;13.222;2022-08-21T04:59:49;29.50;40.20
23377;DHT22;14353;46.070;13.222;2022-08-21T05:02:16;29.50;40.20
23377;DHT22;14353;46.070;13.222;2022-08-21T05:04:52;29.50;40.20
23377;DHT22;14353;46.070;13.222;2022-08-21T05:07:24;29.50;40.10
23377;DHT22;14353;46.070;13.222;2022-08-21T05:09:56;29.60;40.20
23377;DHT22;14353;46.070;13.222;2022-08-21T05:12:23;29.50;40.10
23377;DHT22;14353;46.070;13.222;2022-08-21T05:14:49;29.50;40.10
23377;DHT22;14353;46.070;13.222;2022-08-21T05:17:18;29.50;40.10
23377;DHT22;14353;46.070;13.222;2022-08-21T05:19:44;29.50;40.10
23377;DHT22;14353;46.070;13.222;2022-08-21T05:22:10;29.60;40.20
23377;DHT22;14353;46.070;13.222;2022-08-21T05:24:36;29.50;40.10
23377;DHT22;14353;46.070;13.222;2022-08-21T05:27:01;29.60;40.20
23377;DHT22;14353;46.070;13.222;2022-08-21T05:29:27;29.50;40.00
23377;DHT22;14353;46.070;13.222;2022-08-21T05:31:56;29.50;40.00
23377;DHT22;14353;46.070;13.222;2022-08-21T05:34:23;29.50;40.00
23377;DHT22;14353;46.070;13.222;2022-08-21T05:36:49;29.50;40.00
23377;DHT22;14353;46.070;13.222;2022-08-21T05:39:15;29.50;40.00
23377;DHT22;14353;46.070;13.222;2022-08-21T05:41:41;29.60;40.00
23377;DHT22;14353;46.070;13.222;2022-08-21T05:44:07;29.60;40.00
23377;DHT22;14353;46.070;13.222;2022-08-21T05:46:33;29.50;39.90
23377;DHT22;14353;46.070;13.222;2022-08-21T05:48:59;29.50;39.90
23377;DHT22;14353;46.070;13.222;2022-08-21T05:51:25;29.50;39.90
23377;DHT22;14353;46.070;13.222;2022-08-21T05:53:51;29.60;40.00
23377;DHT22;14353;46.070;13.222;2022-08-21T05:56:23;29.60;40.00
23377;DHT22;14353;46.070;13.222;2022-08-21T05:58:49;29.60;40.00
23377;DHT22;14353;46.070;13.222;2022-08-21T06:01:15;29.60;39.90
23377;DHT22;14353;46.070;13.222;2022-08-21T06:03:41;29.60;39.90
23377;DHT22;14353;46.070;13.222;2022-08-21T06:06:11;29.60;39.90
23377;DHT22;14353;46.070;13.222;2022-08-21T06:08:37;29.60;39.90
23377;DHT22;14353;46.070;13.222;2022-08-21T06:11:07;29.60;39.90
23377;DHT22;14353;46.070;13.222;2022-08-21T06:13:33;29.60;39.80
23377;DHT22;14353;46.070;13.222;2022-08-21T06:16:04;29.60;39.80
23377;DHT22;14353;46.070;13.222;2022-08-21T06:18:30;29.60;39.70
23377;DHT22;14353;46.070;13.222;2022-08-21T06:20:56;29.60;39.70
23377;DHT22;14353;46.070;13.222;2022-08-21T06:23:30;29.60;39.70
23377;DHT22;14353;46.070;13.222;2022-08-21T06:25:56;29.60;39.80
23377;DHT22;14353;46.070;13.222;2022-08-21T06:28:22;29.60;39.80
23377;DHT22;14353;46.070;13.222;2022-08-21T06:30:51;29.60;39.70
23377;DHT22;14353;46.070;13.222;2022-08-21T06:33:20;29.60;39.80
23377;DHT22;14353;46.070;13.222;2022-08-21T06:35:46;29.60;39.70
23377;DHT22;14353;46.070;13.222;2022-08-21T06:38:15;29.60;39.80
23377;DHT22;14353;46.070;13.222;2022-08-21T06:40:41;29.60;39.70
23377;DHT22;14353;46.070;13.222;2022-08-21T06:43:16;29.60;39.80
23377;DHT22;14353;46.070;13.222;2022-08-21T06:45:43;29.60;39.70
23377;DHT22;14353;46.070;13.222;2022-08-21T06:48:11;29.60;39.70
23377;DHT22;14353;46.070;13.222;2022-08-21T06:50:44;29.60;39.70
23377;DHT22;14353;46.070;13.222;2022-08-21T06:53:11;29.60;39.70
23377;DHT22;14353;46.070;13.222;2022-08-21T06:55:39;29.60;39.70
23377;DHT22;14353;46.070;13.222;2022-08-21T06:58:05;29.60;39.70
23377;DHT22;14353;46.070;13.222;2022-08-21T07:00:32;29.60;39.70
23377;DHT22;14353;46.070;13.222;2022-08-21T07:02:58;29.60;39.70
23377;DHT22;14353;46.070;13.222;2022-08-21T07:05:29;29.60;39.70
23377;DHT22;14353;46.070;13.222;2022-08-21T07:07:55;29.60;39.60
23377;DHT22;14353;46.070;13.222;2022-08-21T07:10:23;29.70;39.60
23377;DHT22;14353;46.070;13.222;2022-08-21T07:12:52;29.70;39.60
23377;DHT22;14353;46.070;13.222;2022-08-21T07:15:20;29.70;39.60
23377;DHT22;14353;46.070;13.222;2022-08-21T07:17:46;29.70;39.50
23377;DHT22;14353;46.070;13.222;2022-08-21T07:20:12;29.70;39.40
23377;DHT22;14353;46.070;13.222;2022-08-21T07:22:38;29.70;39.40
23377;DHT22;14353;46.070;13.222;2022-08-21T07:25:06;29.70;39.40
23377;DHT22;14353;46.070;13.222;2022-08-21T07:27:31;29.70;39.40
23377;DHT22;14353;46.070;13.222;2022-08-21T07:29:58;29.70;39.40
23377;DHT22;14353;46.070;13.222;2022-08-21T07:32:24;29.70;39.40
23377;DHT22;14353;46.070;13.222;2022-08-21T07:34:53;29.70;39.40
23377;DHT22;14353;46.070;13.222;2022-08-21T07:37:19;29.70;39.40
23377;DHT22;14353;46.070;13.222;2022-08-21T07:39:45;29.70;39.40
23377;DHT22;14353;46.070;13.222;2022-08-21T07:42:15;29.70;39.40
23377;DHT22;14353;46.070;13.222;2022-08-21T07:44:41;29.70;39.40
23377;DHT22;14353;46.070;13.222;2022-08-21T07:47:06;29.70;39.40
23377;DHT22;14353;46.070;13.222;2022-08-21T07:49:32;29.70;39.40
23377;DHT22;14353;46.070;13.222;2022-08-21T07:51:58;29.70;39.40
23377;DHT22;14353;46.070;13.222;2022-08-21T07:54:25;29.70;39.40
23377;DHT22;14353;46.070;13.222;2022-08-21T07:56:51;29.70;39.30
23377;DHT22;14353;46.070;13.222;2022-08-21T07:59:17;29.70;39.30
23377;DHT22;14353;46.070;13.222;2022-08-21T08:01:45;29.70;39.20
23377;DHT22;14353;46.070;13.222;2022-08-21T08:04:12;29.80;39.20
23377;DHT22;14353;46.070;13.222;2022-08-21T08:06:41;29.80;39.20
23377;DHT22;14353;46.070;13.222;2022-08-21T08:09:07;29.70;39.20
23377;DHT22;14353;46.070;13.222;2022-08-21T08:11:33;29.80;39.20
23377;DHT22;14353;46.070;13.222;2022-08-21T08:13:59;29.70;39.10
23377;DHT22;14353;46.070;13.222;2022-08-21T08:16:25;29.80;39.10
23377;DHT22;14353;46.070;13.222;2022-08-21T08:18:51;29.80;39.00
23377;DHT22;14353;46.070;13.222;2022-08-21T08:21:17;29.80;39.00
23377;DHT22;14353;46.070;13.222;2022-08-21T08:23:46;29.80;39.10
23377;DHT22;14353;46.070;13.222;2022-08-21T08:26:15;29.80;38.90
23377;DHT22;14353;46.070;13.222;2022-08-21T08:28:41;29.80;39.00
23377;DHT22;14353;46.070;13.222;2022-08-21T08:31:07;29.80;39.00
23377;DHT22;14353;46.070;13.222;2022-08-21T08:33:33;29.80;39.00
23377;DHT22;14353;46.070;13.222;2022-08-21T08:35:59;29.80;38.90
23377;DHT22;14353;46.070;13.222;2022-08-21T08:38:28;29.80;38.90
23377;DHT22;14353;46.070;13.222;2022-08-21T08:43:35;29.80;38.90
23377;DHT22;14353;46.070;13.222;2022-08-21T08:46:09;29.80;38.90
23377;DHT22;14353;46.070;13.222;2022-08-21T08:51:43;29.80;38.80
23377;DHT22;14353;46.070;13.222;2022-08-21T08:54:19;29.90;38.40
23377;DHT22;14353;46.070;13.222;2022-08-21T08:56:47;29.90;38.50
23377;DHT22;14353;46.070;13.222;2022-08-21T08:59:18;29.90;38.60
23377;DHT22;14353;46.070;13.222;2022-08-21T09:01:45;29.90;37.80
23377;DHT22;14353;46.070;13.222;2022-08-21T09:04:12;29.90;37.80
23377;DHT22;14353;46.070;13.222;2022-08-21T09:09:20;29.90;37.70
23377;DHT22;14353;46.070;13.222;2022-08-21T09:12:06;29.90;37.50
23377;DHT22;14353;46.070;13.222;2022-08-21T09:17:44;29.90;38.30
23377;DHT22;14353;46.070;13.222;2022-08-21T09:26:13;29.90;38.60
23377;DHT22;14353;46.070;13.222;2022-08-21T09:28:40;29.90;38.40
23377;DHT22;14353;46.070;13.222;2022-08-21T09:31:28;30.00;38.00
23377;DHT22;14353;46.070;13.222;2022-08-21T09:34:07;30.00;38.50
23377;DHT22;14353;46.070;13.222;2022-08-21T09:36:44;30.00;38.10
23377;DHT22;14353;46.070;13.222;2022-08-21T09:39:27;30.00;38.60
23377;DHT22;14353;46.070;13.222;2022-08-21T09:42:06;30.00;38.60
23377;DHT22;14353;46.070;13.222;2022-08-21T09:44:35;30.00;37.50
23377;DHT22;14353;46.070;13.222;2022-08-21T09:47:06;30.00;37.50
23377;DHT22;14353;46.070;13.222;2022-08-21T09:49:35;30.00;38.40
23377;DHT22;14353;46.070;13.222;2022-08-21T09:52:03;30.00;37.50
23377;DHT22;14353;46.070;13.222;2022-08-21T09:54:40;30.00;38.00
23377;DHT22;14353;46.070;13.222;2022-08-21T09:57:18;30.00;38.10
23377;DHT22;14353;46.070;13.222;2022-08-21T10:00:25;30.00;38.00
23377;DHT22;14353;46.070;13.222;2022-08-21T10:02:51;30.10;37.90
23377;DHT22;14353;46.070;13.222;2022-08-21T10:05:22;30.10;37.90
23377;DHT22;14353;46.070;13.222;2022-08-21T10:07:51;30.10;37.80
23377;DHT22;14353;46.070;13.222;2022-08-21T10:10:29;30.00;37.50
23377;DHT22;14353;46.070;13.222;2022-08-21T10:13:14;30.10;37.40
23377;DHT22;14353;46.070;13.222;2022-08-21T10:18:41;30.10;37.30
23377;DHT22;14353;46.070;13.222;2022-08-21T10:26:53;30.10;37.00
23377;DHT22;14353;46.070;13.222;2022-08-21T10:35:33;30.20;36.80
23377;DHT22;14353;46.070;13.222;2022-08-21T10:49:00;30.20;36.70
23377;DHT22;14353;46.070;13.222;2022-08-21T10:51:42;30.20;36.70
23377;DHT22;14353;46.070;13.222;2022-08-21T10:54:25;30.20;36.60
23377;DHT22;14353;46.070;13.222;2022-08-21T10:56:56;30.30;36.70
23377;DHT22;14353;46.070;13.222;2022-08-21T11:02:03;30.30;36.60
23377;DHT22;14353;46.070;13.222;2022-08-21T11:04:48;30.30;36.60
23377;DHT22;14353;46.070;13.222;2022-08-21T11:07:38;30.40;36.60
23377;DHT22;14353;46.070;13.222;2022-08-21T11:10:23;30.40;36.60
23377;DHT22;14353;46.070;13.222;2022-08-21T11:16:02;30.40;36.50
23377;DHT22;14353;46.070;13.222;2022-08-21T11:18:46;30.50;36.60
23377;DHT22;14353;46.070;13.222;2022-08-21T11:24:24;30.50;36.40
23377;DHT22;14353;46.070;13.222;2022-08-21T11:27:23;30.60;36.40
23377;DHT22;14353;46.070;13.222;2022-08-21T11:30:00;30.60;36.30
23377;DHT22;14353;46.070;13.222;2022-08-21T11:32:57;30.60;36.30
23377;DHT22;14353;46.070;13.222;2022-08-21T11:35:39;30.60;36.30
23377;DHT22;14353;46.070;13.222;2022-08-21T11:38:22;30.70;36.30
23377;DHT22;14353;46.070;13.222;2022-08-21T11:46:55;30.80;36.30
23377;DHT22;14353;46.070;13.222;2022-08-21T11:52:36;30.90;36.20
23377;DHT22;14353;46.070;13.222;2022-08-21T11:57:50;30.90;36.10
23377;DHT22;14353;46.070;13.222;2022-08-21T12:00:38;30.90;36.10
23377;DHT22;14353;46.070;13.222;2022-08-21T12:03:14;30.90;36.00
23377;DHT22;14353;46.070;13.222;2022-08-21T12:05:53;31.00;36.00
23377;DHT22;14353;46.070;13.222;2022-08-21T12:08:40;31.00;36.00
23377;DHT22;14353;46.070;13.222;2022-08-21T12:11:22;31.00;36.00
23377;DHT22;14353;46.070;13.222;2022-08-21T12:14:12;31.00;35.90
23377;DHT22;14353;46.070;13.222;2022-08-21T12:16:47;31.10;36.00
23377;DHT22;14353;46.070;13.222;2022-08-21T12:19:29;31.10;35.90
23377;DHT22;14353;46.070;13.222;2022-08-21T12:24:50;31.20;35.90
23377;DHT22;14353;46.070;13.222;2022-08-21T12:27:47;31.20;35.80
23377;DHT22;14353;46.070;13.222;2022-08-21T12:30:34;31.30;35.70
23377;DHT22;14353;46.070;13.222;2022-08-21T12:33:04;31.30;35.70
23377;DHT22;14353;46.070;13.222;2022-08-21T12:35:38;31.30;35.70
23377;DHT22;14353;46.070;13.222;2022-08-21T12:38:15;31.30;35.70
23377;DHT22;14353;46.070;13.222;2022-08-21T12:41:04;31.40;35.80
23377;DHT22;14353;46.070;13.222;2022-08-21T12:43:58;31.40;35.70
23377;DHT22;14353;46.070;13.222;2022-08-21T12:49:37;31.50;35.70
23377;DHT22;14353;46.070;13.222;2022-08-21T12:52:16;31.50;35.80
23377;DHT22;14353;46.070;13.222;2022-08-21T12:54:45;31.60;35.90
23377;DHT22;14353;46.070;13.222;2022-08-21T12:57:29;31.60;35.80
23377;DHT22;14353;46.070;13.222;2022-08-21T13:00:03;31.60;35.90
23377;DHT22;14353;46.070;13.222;2022-08-21T13:02:37;31.60;35.80
23377;DHT22;14353;46.070;13.222;2022-08-21T13:05:12;31.60;35.80
23377;DHT22;14353;46.070;13.222;2022-08-21T13:07:44;31.70;35.90
23377;DHT22;14353;46.070;13.222;2022-08-21T13:10:27;31.70;35.80
23377;DHT22;14353;46.070;13.222;2022-08-21T13:13:03;31.80;35.90
23377;DHT22;14353;46.070;13.222;2022-08-21T13:15:42;31.80;35.90
23377;DHT22;14353;46.070;13.222;2022-08-21T13:18:08;31.80;35.90
23377;DHT22;14353;46.070;13.222;2022-08-21T13:20:36;31.80;35.80
23377;DHT22;14353;46.070;13.222;2022-08-21T13:23:07;31.80;35.70
23377;DHT22;14353;46.070;13.222;2022-08-21T13:25:41;31.80;35.70
23377;DHT22;14353;46.070;13.222;2022-08-21T13:28:10;31.90;36.00
23377;DHT22;14353;46.070;13.222;2022-08-21T13:30:42;31.90;35.90
23377;DHT22;14353;46.070;13.222;2022-08-21T13:33:16;31.90;36.00
23377;DHT22;14353;46.070;13.222;2022-08-21T13:36:02;32.00;36.20
23377;DHT22;14353;46.070;13.222;2022-08-21T13:38:32;32.00;36.20
23377;DHT22;14353;46.070;13.222;2022-08-21T13:41:20;32.00;36.20
23377;DHT22;14353;46.070;13.222;2022-08-21T13:43:58;32.00;36.20
23377;DHT22;14353;46.070;13.222;2022-08-21T13:46:26;32.00;36.20
23377;DHT22;14353;46.070;13.222;2022-08-21T13:48:54;32.10;36.20
23377;DHT22;14353;46.070;13.222;2022-08-21T13:51:21;32.10;36.20
23377;DHT22;14353;46.070;13.222;2022-08-21T13:53:53;32.10;36.20
23377;DHT22;14353;46.070;13.222;2022-08-21T13:58:51;32.10;36.20
23377;DHT22;14353;46.070;13.222;2022-08-21T14:03:53;32.20;36.40
23377;DHT22;14353;46.070;13.222;2022-08-21T14:06:22;32.10;36.50
23377;DHT22;14353;46.070;13.222;2022-08-21T14:09:00;32.20;36.50
23377;DHT22;14353;46.070;13.222;2022-08-21T14:11:32;32.20;36.40
23377;DHT22;14353;46.070;13.222;2022-08-21T14:14:02;32.30;36.40
23377;DHT22;14353;46.070;13.222;2022-08-21T14:16:44;32.30;36.20
23377;DHT22;14353;46.070;13.222;2022-08-21T14:19:24;32.30;36.20
23377;DHT22;14353;46.070;13.222;2022-08-21T14:21:53;32.30;36.00
23377;DHT22;14353;46.070;13.222;2022-08-21T14:27:03;32.40;35.90
23377;DHT22;14353;46.070;13.222;2022-08-21T14:29:35;32.40;35.70
23377;DHT22;14353;46.070;13.222;2022-08-21T14:32:20;32.40;35.70
23377;DHT22;14353;46.070;13.222;2022-08-21T14:34:47;32.40;35.60
23377;DHT22;14353;46.070;13.222;2022-08-21T14:37:13;32.40;35.70
23377;DHT22;14353;46.070;13.222;2022-08-21T14:39:45;32.40;35.70
23377;DHT22;14353;46.070;13.222;2022-08-21T14:42:12;32.40;35.80
23377;DHT22;14353;46.070;13.222;2022-08-21T14:44:38;32.30;35.80
23377;DHT22;14353;46.070;13.222;2022-08-21T14:47:08;32.40;35.90
23377;DHT22;14353;46.070;13.222;2022-08-21T14:49:35;32.40;35.90
23377;DHT22;14353;46.070;13.222;2022-08-21T14:52:00;32.40;36.00
23377;DHT22;14353;46.070;13.222;2022-08-21T14:54:31;32.40;36.10
23377;DHT22;14353;46.070;13.222;2022-08-21T14:57:02;32.50;36.30
23377;DHT22;14353;46.070;13.222;2022-08-21T14:59:30;32.50;36.30
23377;DHT22;14353;46.070;13.222;2022-08-21T15:01:58;32.50;36.70
23377;DHT22;14353;46.070;13.222;2022-08-21T15:04:24;32.50;36.70
23377;DHT22;14353;46.070;13.222;2022-08-21T15:06:50;32.40;37.00
23377;DHT22;14353;46.070;13.222;2022-08-21T15:09:19;32.40;37.20
23377;DHT22;14353;46.070;13.222;2022-08-21T15:11:45;32.30;37.30
23377;DHT22;14353;46.070;13.222;2022-08-21T15:14:24;32.30;37.50
23377;DHT22;14353;46.070;13.222;2022-08-21T15:16:52;32.30;37.70
23377;DHT22;14353;46.070;13.222;2022-08-21T15:19:22;32.30;37.90
23377;DHT22;14353;46.070;13.222;2022-08-21T15:21:48;32.30;38.20
23377;DHT22;14353;46.070;13.222;2022-08-21T15:24:14;32.30;38.20
23377;DHT22;14353;46.070;13.222;2022-08-21T15:26:40;32.30;38.30
23377;DHT22;14353;46.070;13.222;2022-08-21T15:29:07;32.30;38.40
23377;DHT22;14353;46.070;13.222;2022-08-21T15:31:34;32.40;38.90
23377;DHT22;14353;46.070;13.222;2022-08-21T15:34:00;32.40;38.60
23377;DHT22;14353;46.070;13.222;2022-08-21T15:36:26;32.50;38.80
23377;DHT22;14353;46.070;13.222;2022-08-21T15:38:52;32.40;38.80
23377;DHT22;14353;46.070;13.222;2022-08-21T15:41:18;32.40;38.90
23377;DHT22;14353;46.070;13.222;2022-08-21T15:43:51;32.50;38.90
23377;DHT22;14353;46.070;13.222;2022-08-21T15:46:19;32.40;39.00
23377;DHT22;14353;46.070;13.222;2022-08-21T15:48:45;32.40;39.10
23377;DHT22;14353;46.070;13.222;2022-08-21T15:51:12;32.40;39.10
23377;DHT22;14353;46.070;13.222;2022-08-21T15:53:38;32.40;39.20
23377;DHT22;14353;46.070;13.222;2022-08-21T15:56:10;32.30;39.30
23377;DHT22;14353;46.070;13.222;2022-08-21T15:58:38;32.30;39.40
23377;DHT22;14353;46.070;13.222;2022-08-21T16:01:04;32.30;39.50
23377;DHT22;14353;46.070;13.222;2022-08-21T16:03:33;32.30;39.50
23377;DHT22;14353;46.070;13.222;2022-08-21T16:05:59;32.40;39.50
23377;DHT22;14353;46.070;13.222;2022-08-21T16:08:27;32.40;39.40
23377;DHT22;14353;46.070;13.222;2022-08-21T16:10:54;32.40;39.10
23377;DHT22;14353;46.070;13.222;2022-08-21T16:13:29;32.50;39.00
23377;DHT22;14353;46.070;13.222;2022-08-21T16:15:56;32.40;39.00
23377;DHT22;14353;46.070;13.222;2022-08-21T16:18:23;32.40;38.90
23377;DHT22;14353;46.070;13.222;2022-08-21T16:20:51;32.40;38.80
23377;DHT22;14353;46.070;13.222;2022-08-21T16:23:17;32.40;38.70
23377;DHT22;14353;46.070;13.222;2022-08-21T16:25:44;32.40;38.70
23377;DHT22;14353;46.070;13.222;2022-08-21T16:28:13;32.40;38.70
23377;DHT22;14353;46.070;13.222;2022-08-21T16:30:41;32.40;38.60
23377;DHT22;14353;46.070;13.222;2022-08-21T16:33:33;32.40;38.60
23377;DHT22;14353;46.070;13.222;2022-08-21T16:35:58;32.30;38.70
23377;DHT22;14353;46.070;13.222;2022-08-21T16:38:28;32.30;38.80
23377;DHT22;14353;46.070;13.222;2022-08-21T16:40:54;32.30;38.70
23377;DHT22;14353;46.070;13.222;2022-08-21T16:43:26;32.30;38.70
23377;DHT22;14353;46.070;13.222;2022-08-21T16:45:54;32.20;38.70
23377;DHT22;14353;46.070;13.222;2022-08-21T16:48:21;32.20;38.50
23377;DHT22;14353;46.070;13.222;2022-08-21T16:50:47;32.20;38.30
23377;DHT22;14353;46.070;13.222;2022-08-21T16:53:13;32.10;38.50